createdAt,value
2022-10-29T00:08:51.773Z,996.3
2022-10-29T00:14:11.265Z,996.3
2022-10-29T00:19:30.463Z,996.5
2022-10-29T00:24:49.739Z,996.4
2022-10-29T00:30:07.596Z,996.3
2022-10-29T00:35:26.818Z,996.3
2022-10-29T00:40:46.561Z,996.2
2022-10-29T00:46:05.890Z,996.1
2022-10-29T00:51:26.031Z,996.2
2022-10-29T00:56:44.271Z,996.4
2022-10-29T01:02:11.738Z,996.4
2022-10-29T01:07:23.547Z,996.4
2022-10-29T01:12:41.634Z,996.3
2022-10-29T01:18:11.256Z,996.3
2022-10-29T01:23:20.628Z,996.3
2022-10-29T01:28:40.140Z,996.3
2022-10-29T01:33:59.788Z,996.3
2022-10-29T01:39:19.096Z,996.2
2022-10-29T01:44:37.695Z,996.2
2022-10-29T01:49:56.406Z,996.3
2022-10-29T01:55:15.279Z,996.2
2022-10-29T02:00:34.788Z,996.1
2022-10-29T02:05:55.133Z,996.1
2022-10-29T02:11:13.253Z,996
2022-10-29T02:16:32.483Z,996
2022-10-29T02:22:00.533Z,996
2022-10-29T02:27:11.464Z,995.9
2022-10-29T02:33:45.624Z,996
2022-10-29T02:37:50.242Z,995.9
2022-10-29T02:43:09.959Z,995.8
2022-10-29T02:48:29.109Z,995.8
2022-10-29T02:53:55.301Z,995.7
2022-10-29T02:59:09.126Z,995.8
2022-10-29T03:04:26.444Z,995.9
2022-10-29T03:09:44.521Z,996
2022-10-29T03:15:04.089Z,995.9
2022-10-29T03:20:23.265Z,995.9
2022-10-29T03:25:43.057Z,996
2022-10-29T03:31:01.798Z,995.9
2022-10-29T03:36:20.768Z,995.9
2022-10-29T03:41:40.595Z,996
2022-10-29T03:47:00.159Z,996
2022-10-29T03:52:18.809Z,996.1
2022-10-29T03:57:37.914Z,996.2
2022-10-29T04:02:57.127Z,996.1
2022-10-29T04:08:15.941Z,996
2022-10-29T04:13:35.175Z,996
2022-10-29T04:18:54.780Z,996.1
2022-10-29T04:29:33.884Z,996.1
2022-10-29T04:34:52.544Z,996.2
2022-10-29T04:40:11.915Z,996.3
2022-10-29T04:45:31.405Z,996.2
2022-10-29T04:50:50.652Z,996.3
2022-10-29T04:56:11.048Z,996.3
2022-10-29T05:01:30.197Z,996.3
2022-10-29T05:06:48.162Z,996.4
2022-10-29T05:12:07.655Z,996.2
2022-10-29T05:18:41.793Z,996.3
2022-10-29T05:22:58.321Z,996.2
2022-10-29T05:28:05.830Z,996.2
2022-10-29T05:35:04.368Z,996
2022-10-29T05:38:45.288Z,996
2022-10-29T05:44:04.553Z,996.1
2022-10-29T05:49:23.843Z,996.1
2022-10-29T05:54:42.734Z,996.1
2022-10-29T05:59:59.647Z,996.1
2022-10-29T06:05:18.927Z,996
2022-10-29T06:10:38.039Z,996
2022-10-29T06:15:57.370Z,996
2022-10-29T06:21:16.490Z,995.9
2022-10-29T06:26:36.204Z,996
2022-10-29T06:31:54.941Z,995.9
2022-10-29T06:37:14.755Z,996
2022-10-29T06:42:33.140Z,996
2022-10-29T06:47:53.485Z,996
2022-10-29T06:53:12.883Z,996.1
2022-10-29T06:58:31.911Z,996.1
2022-10-29T07:03:50.625Z,996.2
2022-10-29T07:09:09.349Z,996.1
2022-10-29T07:14:29.566Z,996.1
2022-10-29T07:19:48.826Z,996.1
2022-10-29T07:25:07.425Z,996.1
2022-10-29T07:30:27.681Z,996
2022-10-29T07:35:47.071Z,996.1
2022-10-29T07:41:06.513Z,996
2022-10-29T07:46:25.608Z,996
2022-10-29T07:51:44.830Z,996.1
2022-10-29T07:58:18.946Z,996.2
2022-10-29T08:02:23.899Z,996.2
2022-10-29T08:07:43.594Z,996.2
2022-10-29T08:13:02.962Z,996.2
2022-10-29T08:18:20.932Z,996.2
2022-10-29T08:23:39.635Z,996.2
2022-10-29T08:28:59.199Z,996.1
2022-10-29T08:34:17.892Z,996.1
2022-10-29T08:39:36.746Z,996.1
2022-10-29T08:44:56.067Z,996.1
2022-10-29T08:51:30.202Z,996.1
2022-10-29T08:55:36.111Z,996.1
2022-10-29T09:00:54.973Z,996.1
2022-10-29T09:06:14.624Z,996.1
2022-10-29T09:11:34.071Z,996
2022-10-29T09:16:51.649Z,996
2022-10-29T09:22:10.752Z,996
2022-10-29T09:27:29.917Z,996
2022-10-29T09:32:49.166Z,996
2022-10-29T09:38:08.115Z,996
2022-10-29T09:43:28.385Z,996
2022-10-29T09:48:48.074Z,995.9
2022-10-29T09:54:07.258Z,995.9
2022-10-29T09:59:26.272Z,995.8
2022-10-29T10:04:44.975Z,995.8
2022-10-29T10:10:04.051Z,995.7
2022-10-29T10:15:22.834Z,995.7
2022-10-29T10:21:56.985Z,995.7
2022-10-29T10:26:04.229Z,995.6
2022-10-29T10:31:22.235Z,995.6
2022-10-29T10:36:40.462Z,995.5
2022-10-29T10:41:59.587Z,995.4
2022-10-29T10:47:18.320Z,995.4
2022-10-29T10:53:52.509Z,995.4
2022-10-29T10:57:57.379Z,995.2
2022-10-29T11:06:30.442Z,995.2
2022-10-29T11:13:54.175Z,994.9
2022-10-29T11:19:13.742Z,994.9
2022-10-29T11:24:33.096Z,994.8
2022-10-29T11:29:52.634Z,994.7
2022-10-29T11:35:12.010Z,994.7
2022-10-29T11:40:30.785Z,994.6
2022-10-29T11:45:49.969Z,994.6
2022-10-29T11:51:09.549Z,994.6
2022-10-29T11:56:29.033Z,994.5
2022-10-29T12:01:47.845Z,994.4
2022-10-29T12:07:06.787Z,994.4
2022-10-29T12:12:26.120Z,994.3
2022-10-29T12:17:45.145Z,994.3
2022-10-29T12:23:06.966Z,994.2
2022-10-29T12:28:23.600Z,994.1
2022-10-29T12:33:42.527Z,994
2022-10-29T12:39:01.660Z,994
2022-10-29T12:44:21.135Z,993.9
2022-10-29T12:49:40.110Z,993.9
2022-10-29T12:54:58.754Z,993.9
2022-10-29T13:00:17.836Z,993.8
2022-10-29T13:05:37.296Z,993.7
2022-10-29T13:10:56.203Z,993.7
2022-10-29T13:16:16.151Z,993.7
2022-10-29T13:21:35.084Z,993.7
2022-10-29T13:26:53.874Z,993.6
2022-10-29T13:32:12.560Z,993.6
2022-10-29T13:37:31.718Z,993.5
2022-10-29T13:42:50.820Z,993.5
2022-10-29T13:48:10.016Z,993.5
2022-10-29T13:53:29.427Z,993.5
2022-10-29T13:58:48.100Z,993.4
2022-10-29T14:04:07.347Z,993.3
2022-10-29T14:09:26.612Z,993.4
2022-10-29T14:14:45.453Z,993.3
2022-10-29T14:20:04.696Z,993.3
2022-10-29T14:25:23.655Z,993.3
2022-10-29T14:30:43.715Z,993.3
2022-10-29T14:36:02.945Z,993.4
2022-10-29T14:41:22.601Z,993.4
2022-10-29T14:46:41.773Z,993.4
2022-10-29T14:52:00.677Z,993.4
2022-10-29T14:52:25.600Z,993.4
2022-10-29T14:57:44.538Z,993.4
2022-10-29T15:03:03.892Z,993.4
2022-10-29T15:08:22.135Z,993.3
2022-10-29T15:13:42.164Z,993.4
2022-10-29T15:19:00.914Z,993.3
2022-10-29T15:24:20.954Z,993.3
2022-10-29T15:29:42.996Z,993.3
2022-10-29T15:34:58.924Z,993.3
2022-10-29T15:40:19.354Z,993.3
2022-10-29T15:45:38.751Z,993.2
2022-10-29T15:50:58.198Z,993.3
2022-10-29T15:57:32.316Z,993.4
2022-10-29T16:01:36.622Z,993.4
2022-10-29T16:06:55.699Z,993.4
2022-10-29T16:12:14.813Z,993.4
2022-10-29T16:17:32.981Z,993.4
2022-10-29T16:22:52.403Z,993.4
2022-10-29T16:28:12.092Z,993.4
2022-10-29T16:33:31.380Z,993.3
2022-10-29T16:38:51.024Z,993.4
2022-10-29T16:44:10.174Z,993.4
2022-10-29T16:49:29.497Z,993.4
2022-10-29T16:54:49.126Z,993.5
2022-10-29T17:00:07.473Z,993.5
2022-10-29T17:05:27.193Z,993.5
2022-10-29T17:10:46.766Z,993.5
2022-10-29T17:16:05.858Z,993.6
2022-10-29T17:21:24.778Z,993.6
2022-10-29T17:26:52.058Z,993.6
2022-10-29T17:37:22.214Z,993.7
2022-10-29T17:42:41.185Z,993.7
2022-10-29T17:48:00.664Z,993.8
2022-10-29T17:53:19.548Z,993.8
2022-10-29T17:58:38.759Z,993.8
2022-10-29T18:03:57.805Z,993.8
2022-10-29T18:09:18.540Z,993.8
2022-10-29T18:14:35.335Z,993.9
2022-10-29T18:19:54.096Z,993.9
2022-10-29T18:25:13.523Z,993.9
2022-10-29T18:30:32.503Z,993.9
2022-10-29T18:35:51.325Z,993.9
2022-10-29T18:41:11.490Z,993.9
2022-10-29T18:46:30.524Z,993.8
2022-10-29T18:51:48.711Z,993.8
2022-10-29T18:57:07.917Z,993.9
2022-10-29T19:02:27.573Z,993.9
2022-10-29T19:07:47.792Z,993.9
2022-10-29T19:13:06.638Z,993.9
2022-10-29T19:18:26.173Z,993.8
2022-10-29T19:23:45.808Z,993.8
2022-10-29T19:29:04.524Z,993.8
2022-10-29T19:34:24.214Z,993.9
2022-10-29T19:39:43.101Z,993.9
2022-10-29T19:45:02.605Z,993.9
2022-10-29T19:50:21.531Z,993.9
2022-10-29T19:56:55.722Z,993.8
2022-10-29T20:01:00.889Z,993.8
2022-10-29T20:06:20.556Z,993.8
2022-10-29T20:11:39.405Z,993.8
2022-10-29T20:16:59.078Z,993.8
2022-10-29T20:22:18.023Z,993.8
2022-10-29T20:27:37.303Z,993.8
2022-10-29T20:36:10.391Z,993.8
2022-10-29T20:38:16.057Z,993.7
2022-10-29T20:43:35.827Z,993.8
2022-10-29T20:48:54.830Z,993.9
2022-10-29T20:54:13.731Z,993.8
2022-10-29T20:59:33.279Z,993.8
2022-10-29T21:04:52.365Z,993.8
2022-10-29T21:10:11.655Z,993.9
2022-10-29T21:15:30.975Z,993.9
2022-10-29T21:20:50.511Z,993.9
2022-10-29T21:26:09.129Z,993.8
2022-10-29T21:31:27.942Z,993.8
2022-10-29T21:38:02.141Z,993.7
2022-10-29T21:42:18.618Z,993.7
2022-10-29T21:47:27.103Z,993.7
2022-10-29T21:52:46.062Z,993.7
2022-10-29T21:58:04.329Z,993.7
2022-10-29T22:03:23.614Z,993.7
2022-10-29T22:08:43.157Z,993.7
2022-10-29T22:15:17.336Z,993.7
2022-10-29T22:19:33.899Z,993.7
2022-10-29T22:24:40.773Z,993.7
2022-10-29T22:29:59.978Z,993.7
2022-10-29T22:35:19.322Z,993.6
2022-10-29T22:40:38.519Z,993.6
2022-10-29T22:45:57.917Z,993.6
2022-10-29T22:51:17.162Z,993.6
2022-10-29T22:56:36.144Z,993.6
2022-10-29T23:01:55.612Z,993.6
2022-10-29T23:07:14.803Z,993.6
2022-10-29T23:12:33.585Z,993.6
2022-10-29T23:17:52.989Z,993.6
2022-10-29T23:23:12.433Z,993.6
2022-10-29T23:28:31.584Z,993.7
2022-10-29T23:33:50.450Z,993.6
2022-10-29T23:39:09.993Z,993.7
2022-10-29T23:44:28.730Z,993.7
2022-10-29T23:49:47.965Z,993.6
2022-10-29T23:55:07.015Z,993.5
